Cape Henlopen — WYR8756 — position and weather

sailwx.info

Track history (hours):
 
Tides and Currents Weather Stations Pressure Air Temp Water Temp Dewpoint Dewpoint Depression Visibility Wind Speed Wind Dir Waves Ship Positions

Cape Henlopen

Owner: DELAWARE RIVER & BAY AUTHORITY, CAPE MAY, NJ. More information available from US FCC via Universal Licensing System and Coast Guard Vessel Documentation Center.

Last reported at 2017-Oct-17 12:06 UTC. Time now 2017-Oct-17 20:50 UTC.
Position N 38°58' W 074°58'.

; draft 3 m.

Type: Passenger vessel. MMSI: 366914180.

Date/timePositionNaut miles runAvg speedWind from/ knotsBaromVisibWave heightAir tempDewpointWater temp
2017-Oct-17 12:06N 38°58' W 074°58'0 0.0
2017-Oct-17 12:00N 38°58' W 074°58'0 0.0
2017-Oct-17 01:04N 38°58' W 074°58'0 3.7
2017-Oct-17 01:01N 38°58' W 074°58'0 0.0
2017-Oct-16 14:41N 38°58' W 074°58'0 0.3
2017-Oct-16 14:00N 38°58' W 074°58'711.2
2017-Oct-16 13:21N 38°53' W 075°04'611.5
2017-Oct-16 12:51N 38°47' W 075°07'0 1.1
2017-Oct-16 12:30N 38°47' W 075°07'4 7.4
2017-Oct-16 12:00N 38°51' W 075°06'1012.0
2017-Oct-16 11:12N 38°58' W 074°58'1 0.1
2017-Oct-16 02:03N 38°58' W 074°58'0 0.0
2017-Oct-16 02:00N 38°58' W 074°58'0 0.0
2017-Oct-16 01:12N 38°58' W 074°58'0 1.0
2017-Oct-16 01:00N 38°58' W 074°58'510.9
2017-Oct-16 00:30N 38°54' W 075°03'5 2.3
2017-Oct-15 22:15N 38°58' W 074°58'0 1.2
2017-Oct-15 21:52N 38°58' W 074°58'1112.0
2017-Oct-15 20:54N 38°49' W 075°06'2 2.0
2017-Oct-15 19:51N 38°51' W 075°06'10 8.3
2017-Oct-15 18:39N 38°58' W 074°58'0 0.1
2017-Oct-15 17:41N 38°58' W 074°58'2 9.3
2017-Oct-15 17:30N 38°57' W 074°59'1111.9
2017-Oct-15 16:35N 38°48' W 075°07'1 8.5
2017-Oct-15 16:30N 38°47' W 075°07'0 0.6
2017-Oct-15 16:00N 38°47' W 075°07'711.1
2017-Oct-15 15:20N 38°54' W 075°04'6 9.6
2017-Oct-15 14:45N 38°58' W 074°58'0 0.1
2017-Oct-15 14:01N 38°58' W 074°58'611.0
2017-Oct-15 13:29N 38°53' W 075°02'611.7
2017-Oct-15 12:58N 38°48' W 075°07'1 2.7
2017-Oct-15 12:30N 38°47' W 075°07'3 6.6
2017-Oct-15 12:00N 38°50' W 075°07'1012.2
2017-Oct-15 11:10N 38°58' W 074°58'0 0.1
2017-Oct-15 06:30N 38°58' W 074°58'0 0.0
2017-Oct-15 03:24N 38°58' W 074°58'0 0.0
2017-Oct-15 01:42N 38°58' W 074°58'0 0.0
2017-Oct-14 23:34N 38°58' W 074°58'0 5.5
2017-Oct-14 23:31N 38°58' W 074°58'611.3
2017-Oct-14 23:00N 38°53' W 075°02'711.7
2017-Oct-14 22:24N 38°47' W 075°07'0 1.0
2017-Oct-14 21:58N 38°47' W 075°07'4 8.4
2017-Oct-14 21:30N 38°51' W 075°06'1011.7
2017-Oct-14 20:41N 38°58' W 074°58'0 2.0
2017-Oct-14 20:26N 38°58' W 074°58'0 0.1
2017-Oct-14 19:58N 38°58' W 074°58'612.0
2017-Oct-14 19:28N 38°54' W 075°03'8 9.3
2017-Oct-14 18:39N 38°47' W 075°07'0 0.0
2017-Oct-14 18:30N 38°47' W 075°07'13 9.9
2017-Oct-14 17:12N 38°58' W 074°58'1 2.8
2017-Oct-14 16:56N 38°58' W 074°58'1 2.5
2017-Oct-14 16:27N 38°57' W 074°59'612.3
2017-Oct-14 16:00N 38°53' W 075°03'611.5
2017-Oct-14 15:30N 38°48' W 075°07'1 2.3
2017-Oct-14 15:00N 38°47' W 075°07'3 6.1
2017-Oct-14 14:30N 38°50' W 075°07'913.2
2017-Oct-14 13:49N 38°57' W 074°60'2 4.5
2017-Oct-14 13:24N 38°58' W 074°58'0 0.0
2017-Oct-14 09:06N 38°58' W 074°58'0 0.0
2017-Oct-14 08:39N 38°58' W 074°58'0 0.0
2017-Oct-14 04:30N 38°58' W 074°58'0 0.0
2017-Oct-12 20:10N 38°58' W 074°58'1 5.6
2017-Oct-12 19:58N 38°57' W 074°59'811.2
2017-Oct-12 19:15N 38°51' W 075°05'9 4.2
2017-Oct-12 17:11N 38°58' W 074°58'1 2.6
2017-Oct-12 16:59N 38°58' W 074°58'1 1.8
2017-Oct-12 16:30N 38°58' W 074°59'0 0.1
2017-Oct-12 13:39N 38°58' W 074°58'0 0.0
2017-Oct-12 03:51N 38°58' W 074°58'0 0.0
2017-Oct-12 03:15N 38°58' W 074°58'0 0.0
2017-Oct-12 02:54N 38°58' W 074°58'0 0.0
2017-Oct-12 02:24N 38°58' W 074°58'0 0.0
2017-Oct-12 01:51N 38°58' W 074°58'0 0.0
2017-Oct-12 01:30N 38°58' W 074°58'0 0.0
2017-Oct-11 20:06N 38°58' W 074°58'1 6.0
2017-Oct-11 20:00N 38°58' W 074°58'711.4
2017-Oct-11 19:22N 38°52' W 075°03'412.1
2017-Oct-11 19:00N 38°48' W 075°07'1 2.4
2017-Oct-11 18:27N 38°47' W 075°07'1310.4
2017-Oct-11 17:12N 38°58' W 074°58'1 1.1
2017-Oct-11 16:40N 38°58' W 074°58'0 0.0
2017-Oct-10 23:57N 38°58' W 074°58'0 0.0
2017-Oct-10 23:29N 38°58' W 074°58'0 0.0
2017-Oct-10 20:05N 38°58' W 074°58'0 5.1
2017-Oct-10 20:00N 38°58' W 074°58'610.9
2017-Oct-10 19:29N 38°54' W 075°02'611.6
2017-Oct-10 18:58N 38°48' W 075°07'1 1.1
2017-Oct-10 18:12N 38°48' W 075°07'1311.3
2017-Oct-10 17:04N 38°58' W 074°58'0 0.2
2017-Oct-10 16:47N 38°58' W 074°58'0 0.2
2017-Oct-10 16:30N 38°58' W 074°58'611.8
2017-Oct-10 15:59N 38°54' W 075°03'612.7
2017-Oct-10 15:30N 38°48' W 075°07'1 2.5
2017-Oct-10 14:58N 38°47' W 075°07'1210.7
2017-Oct-10 13:50N 38°57' W 074°59'1 4.4
2017-Oct-10 13:30N 38°58' W 074°58'0 0.0
2017-Oct-10 12:58N 38°58' W 074°58'0 0.0
2017-Oct-10 12:28N 38°58' W 074°58'0 0.0
2017-Oct-10 11:58N 38°58' W 074°58'0 0.0
2017-Oct-10 11:28N 38°58' W 074°58'0 0.0
2017-Oct-10 10:58N 38°58' W 074°58'0 0.0
2017-Oct-10 10:25N 38°58' W 074°58'0 0.0
2017-Oct-10 09:58N 38°58' W 074°58'0 0.0
2017-Oct-10 09:28N 38°58' W 074°58'0 0.0
2017-Oct-10 08:58N 38°58' W 074°58'0 0.0
2017-Oct-10 08:28N 38°58' W 074°58'0 0.0
2017-Oct-10 07:58N 38°58' W 074°58'0 0.0
2017-Oct-10 07:28N 38°58' W 074°58'0 0.0
2017-Oct-10 06:58N 38°58' W 074°58'0 0.0
2017-Oct-10 06:28N 38°58' W 074°58'0 0.0
2017-Oct-10 05:58N 38°58' W 074°58'0 0.0
2017-Oct-10 05:28N 38°58' W 074°58'0 0.0
2017-Oct-10 04:55N 38°58' W 074°58'0 0.0
2017-Oct-10 00:59N 38°58' W 074°58'611.8
2017-Oct-10 00:28N 38°53' W 075°02'611.9
2017-Oct-09 23:59N 38°48' W 075°06'12 6.2
2017-Oct-09 22:05N 38°58' W 074°58'0 0.1
2017-Oct-09 21:39N 38°58' W 074°58'2 9.0
2017-Oct-09 21:28N 38°57' W 074°60'1 0.5
2017-Oct-09 18:38N 38°58' W 074°58'0 0.3
2017-Oct-09 17:34N 38°58' W 074°58'2 8.7
2017-Oct-09 17:22N 38°57' W 074°59'1 0.5
2017-Oct-09 14:39N 38°58' W 074°58'1 2.8
2017-Oct-09 14:28N 38°58' W 074°58'0 0.2
2017-Oct-09 13:56N 38°58' W 074°58'511.9
2017-Oct-09 13:30N 38°54' W 075°02'713.0
2017-Oct-09 13:00N 38°48' W 075°06'2 3.5
2017-Oct-09 12:30N 38°47' W 075°07'13 9.4
2017-Oct-09 11:07N 38°58' W 074°58'0 1.9
2017-Oct-09 10:57N 38°58' W 074°58'0 0.0
2017-Oct-09 10:30N 38°58' W 074°58'0 0.0
2017-Oct-09 10:00N 38°58' W 074°58'0 0.0
2017-Oct-09 09:28N 38°58' W 074°58'0 0.0
2017-Oct-09 08:58N 38°58' W 074°58'0 0.0
2017-Oct-09 08:28N 38°58' W 074°58'0 0.0
2017-Oct-09 07:55N 38°58' W 074°58'0 0.0
2017-Oct-09 07:28N 38°58' W 074°58'0 0.0
2017-Oct-09 06:58N 38°58' W 074°58'0 0.0
2017-Oct-09 06:25N 38°58' W 074°58'0 0.0
2017-Oct-09 05:55N 38°58' W 074°58'0 0.0
2017-Oct-09 05:16N 38°58' W 074°58'0 0.0
2017-Oct-09 04:46N 38°58' W 074°58'0 0.0
2017-Oct-09 04:25N 38°58' W 074°58'0 0.0
2017-Oct-09 03:58N 38°58' W 074°58'0 0.0
2017-Oct-09 03:28N 38°58' W 074°58'0 0.0
2017-Oct-09 02:55N 38°58' W 074°58'0 0.0
2017-Oct-09 02:25N 38°58' W 074°58'0 0.0
2017-Oct-09 01:58N 38°58' W 074°58'0 0.0
2017-Oct-09 01:28N 38°58' W 074°58'0 0.1
2017-Oct-09 01:00N 38°58' W 074°58'712.0
2017-Oct-09 00:25N 38°53' W 075°03'512.4
2017-Oct-09 00:00N 38°48' W 075°06'1 1.1
2017-Oct-08 23:18N 38°48' W 075°07'1211.8
2017-Oct-08 22:15N 38°58' W 074°58'1 2.0
2017-Oct-08 21:58N 38°58' W 074°58'2 4.1
2017-Oct-08 21:27N 38°57' W 074°60'510.9
2017-Oct-08 20:58N 38°52' W 075°03'511.3
2017-Oct-08 20:30N 38°48' W 075°07'12 4.5
2017-Oct-08 17:43N 38°58' W 074°58'2 7.8
2017-Oct-08 17:25N 38°56' W 074°60'2 0.8
2017-Oct-08 14:22N 38°58' W 074°58'0 0.1
2017-Oct-08 13:56N 38°58' W 074°58'512.0
2017-Oct-08 13:30N 38°54' W 075°02'5 0.8
2017-Oct-08 07:10N 38°58' W 074°58'0 0.0
2017-Oct-08 05:49N 38°58' W 074°58'0 0.0
2017-Oct-08 05:25N 38°58' W 074°58'0 0.0
2017-Oct-08 04:49N 38°58' W 074°58'0 0.0
2017-Oct-08 03:13N 38°58' W 074°58'0 0.0
2017-Oct-08 02:58N 38°58' W 074°58'0 0.0
2017-Oct-08 02:10N 38°58' W 074°58'0 0.0
2017-Oct-08 01:55N 38°58' W 074°58'0 0.0
2017-Oct-08 01:28N 38°58' W 074°58'0 0.0
2017-Oct-08 00:58N 38°58' W 074°58'0 0.0
2017-Oct-08 00:22N 38°58' W 074°58'0 0.0
2017-Oct-07 23:46N 38°58' W 074°58'0 0.0
2017-Oct-07 23:28N 38°58' W 074°58'0 0.0
2017-Oct-07 22:52N 38°58' W 074°58'0 0.0
2017-Oct-07 22:28N 38°58' W 074°58'0 0.0
2017-Oct-07 21:55N 38°58' W 074°58'0 0.0
2017-Oct-07 21:25N 38°58' W 074°58'0 0.0
2017-Oct-07 20:58N 38°58' W 074°58'0 0.0
2017-Oct-07 20:28N 38°58' W 074°58'0 0.0
2017-Oct-07 19:58N 38°58' W 074°58'0 0.0
2017-Oct-07 19:19N 38°58' W 074°58'1 2.6
2017-Oct-07 19:00N 38°58' W 074°59'611.0
2017-Oct-07 18:30N 38°53' W 075°03'611.7
2017-Oct-07 18:01N 38°48' W 075°07'2 3.0
2017-Oct-07 17:30N 38°47' W 075°07'3 6.5
2017-Oct-07 17:00N 38°50' W 075°07'812.5
2017-Oct-07 16:19N 38°57' W 075°00'2 6.7
2017-Oct-07 15:59N 38°58' W 074°58'0 0.7
2017-Oct-07 15:30N 38°58' W 074°58'711.9
2017-Oct-07 14:55N 38°52' W 075°03'512.3
2017-Oct-07 14:30N 38°48' W 075°07'1 2.5
2017-Oct-07 14:00N 38°47' W 075°07'4 8.3
2017-Oct-07 13:30N 38°51' W 075°06'711.4
2017-Oct-07 12:51N 38°57' W 074°60'2 6.4
2017-Oct-07 12:30N 38°58' W 074°58'  
Track history (hours):
 
Tides and Currents Weather Stations Pressure Air Temp Water Temp Dewpoint Dewpoint Depression Visibility Wind Speed Wind Dir Waves Ship Positions

Cape Henlopen

Owner: DELAWARE RIVER & BAY AUTHORITY, CAPE MAY, NJ. More information available from US FCC via Universal Licensing System and Coast Guard Vessel Documentation Center.

Last reported at 2017-Oct-17 12:06 UTC. Time now 2017-Oct-17 20:50 UTC.
Position N 38°58' W 074°58'.

; draft 3 m.

Type: Passenger vessel. MMSI: 366914180.

Date/timePositionNaut miles runAvg speedWind from/ knotsBaromVisibWave heightAir tempDewpointWater temp
2017-Oct-17 12:06N 38°58' W 074°58'0 0.0
2017-Oct-17 12:00N 38°58' W 074°58'0 0.0
2017-Oct-17 01:04N 38°58' W 074°58'0 3.7
2017-Oct-17 01:01N 38°58' W 074°58'0 0.0
2017-Oct-16 14:41N 38°58' W 074°58'0 0.3
2017-Oct-16 14:00N 38°58' W 074°58'711.2
2017-Oct-16 13:21N 38°53' W 075°04'611.5
2017-Oct-16 12:51N 38°47' W 075°07'0 1.1
2017-Oct-16 12:30N 38°47' W 075°07'4 7.4
2017-Oct-16 12:00N 38°51' W 075°06'1012.0
2017-Oct-16 11:12N 38°58' W 074°58'1 0.1
2017-Oct-16 02:03N 38°58' W 074°58'0 0.0
2017-Oct-16 02:00N 38°58' W 074°58'0 0.0
2017-Oct-16 01:12N 38°58' W 074°58'0 1.0
2017-Oct-16 01:00N 38°58' W 074°58'510.9
2017-Oct-16 00:30N 38°54' W 075°03'5 2.3
2017-Oct-15 22:15N 38°58' W 074°58'0 1.2
2017-Oct-15 21:52N 38°58' W 074°58'1112.0
2017-Oct-15 20:54N 38°49' W 075°06'2 2.0
2017-Oct-15 19:51N 38°51' W 075°06'10 8.3
2017-Oct-15 18:39N 38°58' W 074°58'0 0.1
2017-Oct-15 17:41N 38°58' W 074°58'2 9.3
2017-Oct-15 17:30N 38°57' W 074°59'1111.9
2017-Oct-15 16:35N 38°48' W 075°07'1 8.5
2017-Oct-15 16:30N 38°47' W 075°07'0 0.6
2017-Oct-15 16:00N 38°47' W 075°07'711.1
2017-Oct-15 15:20N 38°54' W 075°04'6 9.6
2017-Oct-15 14:45N 38°58' W 074°58'0 0.1
2017-Oct-15 14:01N 38°58' W 074°58'611.0
2017-Oct-15 13:29N 38°53' W 075°02'611.7
2017-Oct-15 12:58N 38°48' W 075°07'1 2.7
2017-Oct-15 12:30N 38°47' W 075°07'3 6.6
2017-Oct-15 12:00N 38°50' W 075°07'1012.2
2017-Oct-15 11:10N 38°58' W 074°58'0 0.1
2017-Oct-15 06:30N 38°58' W 074°58'0 0.0
2017-Oct-15 03:24N 38°58' W 074°58'0 0.0
2017-Oct-15 01:42N 38°58' W 074°58'0 0.0
2017-Oct-14 23:34N 38°58' W 074°58'0 5.5
2017-Oct-14 23:31N 38°58' W 074°58'611.3
2017-Oct-14 23:00N 38°53' W 075°02'711.7
2017-Oct-14 22:24N 38°47' W 075°07'0 1.0
2017-Oct-14 21:58N 38°47' W 075°07'4 8.4
2017-Oct-14 21:30N 38°51' W 075°06'1011.7
2017-Oct-14 20:41N 38°58' W 074°58'0 2.0
2017-Oct-14 20:26N 38°58' W 074°58'0 0.1
2017-Oct-14 19:58N 38°58' W 074°58'612.0
2017-Oct-14 19:28N 38°54' W 075°03'8 9.3
2017-Oct-14 18:39N 38°47' W 075°07'0 0.0
2017-Oct-14 18:30N 38°47' W 075°07'13 9.9
2017-Oct-14 17:12N 38°58' W 074°58'1 2.8
2017-Oct-14 16:56N 38°58' W 074°58'1 2.5
2017-Oct-14 16:27N 38°57' W 074°59'612.3
2017-Oct-14 16:00N 38°53' W 075°03'611.5
2017-Oct-14 15:30N 38°48' W 075°07'1 2.3
2017-Oct-14 15:00N 38°47' W 075°07'3 6.1
2017-Oct-14 14:30N 38°50' W 075°07'913.2
2017-Oct-14 13:49N 38°57' W 074°60'2 4.5
2017-Oct-14 13:24N 38°58' W 074°58'0 0.0
2017-Oct-14 09:06N 38°58' W 074°58'0 0.0
2017-Oct-14 08:39N 38°58' W 074°58'0 0.0
2017-Oct-14 04:30N 38°58' W 074°58'0 0.0
2017-Oct-12 20:10N 38°58' W 074°58'1 5.6
2017-Oct-12 19:58N 38°57' W 074°59'811.2
2017-Oct-12 19:15N 38°51' W 075°05'9 4.2
2017-Oct-12 17:11N 38°58' W 074°58'1 2.6
2017-Oct-12 16:59N 38°58' W 074°58'1 1.8
2017-Oct-12 16:30N 38°58' W 074°59'0 0.1
2017-Oct-12 13:39N 38°58' W 074°58'0 0.0
2017-Oct-12 03:51N 38°58' W 074°58'0 0.0
2017-Oct-12 03:15N 38°58' W 074°58'0 0.0
2017-Oct-12 02:54N 38°58' W 074°58'0 0.0
2017-Oct-12 02:24N 38°58' W 074°58'0 0.0
2017-Oct-12 01:51N 38°58' W 074°58'0 0.0
2017-Oct-12 01:30N 38°58' W 074°58'0 0.0
2017-Oct-11 20:06N 38°58' W 074°58'1 6.0
2017-Oct-11 20:00N 38°58' W 074°58'711.4
2017-Oct-11 19:22N 38°52' W 075°03'412.1
2017-Oct-11 19:00N 38°48' W 075°07'1 2.4
2017-Oct-11 18:27N 38°47' W 075°07'1310.4
2017-Oct-11 17:12N 38°58' W 074°58'1 1.1
2017-Oct-11 16:40N 38°58' W 074°58'0 0.0
2017-Oct-10 23:57N 38°58' W 074°58'0 0.0
2017-Oct-10 23:29N 38°58' W 074°58'0 0.0
2017-Oct-10 20:05N 38°58' W 074°58'0 5.1
2017-Oct-10 20:00N 38°58' W 074°58'610.9
2017-Oct-10 19:29N 38°54' W 075°02'611.6
2017-Oct-10 18:58N 38°48' W 075°07'1 1.1
2017-Oct-10 18:12N 38°48' W 075°07'1311.3
2017-Oct-10 17:04N 38°58' W 074°58'0 0.2
2017-Oct-10 16:47N 38°58' W 074°58'0 0.2
2017-Oct-10 16:30N 38°58' W 074°58'611.8
2017-Oct-10 15:59N 38°54' W 075°03'612.7
2017-Oct-10 15:30N 38°48' W 075°07'1 2.5
2017-Oct-10 14:58N 38°47' W 075°07'1210.7
2017-Oct-10 13:50N 38°57' W 074°59'1 4.4
2017-Oct-10 13:30N 38°58' W 074°58'0 0.0
2017-Oct-10 12:58N 38°58' W 074°58'0 0.0
2017-Oct-10 12:28N 38°58' W 074°58'0 0.0
2017-Oct-10 11:58N 38°58' W 074°58'0 0.0
2017-Oct-10 11:28N 38°58' W 074°58'0 0.0
2017-Oct-10 10:58N 38°58' W 074°58'0 0.0
2017-Oct-10 10:25N 38°58' W 074°58'0 0.0
2017-Oct-10 09:58N 38°58' W 074°58'0 0.0
2017-Oct-10 09:28N 38°58' W 074°58'0 0.0
2017-Oct-10 08:58N 38°58' W 074°58'0 0.0
2017-Oct-10 08:28N 38°58' W 074°58'0 0.0
2017-Oct-10 07:58N 38°58' W 074°58'0 0.0
2017-Oct-10 07:28N 38°58' W 074°58'0 0.0
2017-Oct-10 06:58N 38°58' W 074°58'0 0.0
2017-Oct-10 06:28N 38°58' W 074°58'0 0.0
2017-Oct-10 05:58N 38°58' W 074°58'0 0.0
2017-Oct-10 05:28N 38°58' W 074°58'0 0.0
2017-Oct-10 04:55N 38°58' W 074°58'0 0.0
2017-Oct-10 00:59N 38°58' W 074°58'611.8
2017-Oct-10 00:28N 38°53' W 075°02'611.9
2017-Oct-09 23:59N 38°48' W 075°06'12 6.2
2017-Oct-09 22:05N 38°58' W 074°58'0 0.1
2017-Oct-09 21:39N 38°58' W 074°58'2 9.0
2017-Oct-09 21:28N 38°57' W 074°60'1 0.5
2017-Oct-09 18:38N 38°58' W 074°58'0 0.3
2017-Oct-09 17:34N 38°58' W 074°58'2 8.7
2017-Oct-09 17:22N 38°57' W 074°59'1 0.5
2017-Oct-09 14:39N 38°58' W 074°58'1 2.8
2017-Oct-09 14:28N 38°58' W 074°58'0 0.2
2017-Oct-09 13:56N 38°58' W 074°58'511.9
2017-Oct-09 13:30N 38°54' W 075°02'713.0
2017-Oct-09 13:00N 38°48' W 075°06'2 3.5
2017-Oct-09 12:30N 38°47' W 075°07'13 9.4
2017-Oct-09 11:07N 38°58' W 074°58'0 1.9
2017-Oct-09 10:57N 38°58' W 074°58'0 0.0
2017-Oct-09 10:30N 38°58' W 074°58'0 0.0
2017-Oct-09 10:00N 38°58' W 074°58'0 0.0
2017-Oct-09 09:28N 38°58' W 074°58'0 0.0
2017-Oct-09 08:58N 38°58' W 074°58'0 0.0
2017-Oct-09 08:28N 38°58' W 074°58'0 0.0
2017-Oct-09 07:55N 38°58' W 074°58'0 0.0
2017-Oct-09 07:28N 38°58' W 074°58'0 0.0
2017-Oct-09 06:58N 38°58' W 074°58'0 0.0
2017-Oct-09 06:25N 38°58' W 074°58'0 0.0
2017-Oct-09 05:55N 38°58' W 074°58'0 0.0
2017-Oct-09 05:16N 38°58' W 074°58'0 0.0
2017-Oct-09 04:46N 38°58' W 074°58'0 0.0
2017-Oct-09 04:25N 38°58' W 074°58'0 0.0
2017-Oct-09 03:58N 38°58' W 074°58'0 0.0
2017-Oct-09 03:28N 38°58' W 074°58'0 0.0
2017-Oct-09 02:55N 38°58' W 074°58'0 0.0
2017-Oct-09 02:25N 38°58' W 074°58'0 0.0
2017-Oct-09 01:58N 38°58' W 074°58'0 0.0
2017-Oct-09 01:28N 38°58' W 074°58'0 0.1
2017-Oct-09 01:00N 38°58' W 074°58'712.0
2017-Oct-09 00:25N 38°53' W 075°03'512.4
2017-Oct-09 00:00N 38°48' W 075°06'1 1.1
2017-Oct-08 23:18N 38°48' W 075°07'1211.8
2017-Oct-08 22:15N 38°58' W 074°58'1 2.0
2017-Oct-08 21:58N 38°58' W 074°58'2 4.1
2017-Oct-08 21:27N 38°57' W 074°60'510.9
2017-Oct-08 20:58N 38°52' W 075°03'511.3
2017-Oct-08 20:30N 38°48' W 075°07'12 4.5
2017-Oct-08 17:43N 38°58' W 074°58'2 7.8
2017-Oct-08 17:25N 38°56' W 074°60'2 0.8
2017-Oct-08 14:22N 38°58' W 074°58'0 0.1
2017-Oct-08 13:56N 38°58' W 074°58'512.0
2017-Oct-08 13:30N 38°54' W 075°02'5 0.8
2017-Oct-08 07:10N 38°58' W 074°58'0 0.0
2017-Oct-08 05:49N 38°58' W 074°58'0 0.0
2017-Oct-08 05:25N 38°58' W 074°58'0 0.0
2017-Oct-08 04:49N 38°58' W 074°58'0 0.0
2017-Oct-08 03:13N 38°58' W 074°58'0 0.0
2017-Oct-08 02:58N 38°58' W 074°58'0 0.0
2017-Oct-08 02:10N 38°58' W 074°58'0 0.0
2017-Oct-08 01:55N 38°58' W 074°58'0 0.0
2017-Oct-08 01:28N 38°58' W 074°58'0 0.0
2017-Oct-08 00:58N 38°58' W 074°58'0 0.0
2017-Oct-08 00:22N 38°58' W 074°58'0 0.0
2017-Oct-07 23:46N 38°58' W 074°58'0 0.0
2017-Oct-07 23:28N 38°58' W 074°58'0 0.0
2017-Oct-07 22:52N 38°58' W 074°58'0 0.0
2017-Oct-07 22:28N 38°58' W 074°58'0 0.0
2017-Oct-07 21:55N 38°58' W 074°58'0 0.0
2017-Oct-07 21:25N 38°58' W 074°58'0 0.0
2017-Oct-07 20:58N 38°58' W 074°58'0 0.0
2017-Oct-07 20:28N 38°58' W 074°58'0 0.0
2017-Oct-07 19:58N 38°58' W 074°58'0 0.0
2017-Oct-07 19:19N 38°58' W 074°58'1 2.6
2017-Oct-07 19:00N 38°58' W 074°59'611.0
2017-Oct-07 18:30N 38°53' W 075°03'611.7
2017-Oct-07 18:01N 38°48' W 075°07'2 3.0
2017-Oct-07 17:30N 38°47' W 075°07'3 6.5
2017-Oct-07 17:00N 38°50' W 075°07'812.5
2017-Oct-07 16:19N 38°57' W 075°00'2 6.7
2017-Oct-07 15:59N 38°58' W 074°58'0 0.7
2017-Oct-07 15:30N 38°58' W 074°58'711.9
2017-Oct-07 14:55N 38°52' W 075°03'512.3
2017-Oct-07 14:30N 38°48' W 075°07'1 2.5
2017-Oct-07 14:00N 38°47' W 075°07'4 8.3
2017-Oct-07 13:30N 38°51' W 075°06'711.4
2017-Oct-07 12:51N 38°57' W 074°60'2 6.4
2017-Oct-07 12:30N 38°58' W 074°58'  

Dump ship's entire track history